sensor_id;sensor_type;location;lat;lon;timestamp;pressure;altitude;pressure_sealevel;temperature
20103;BMP180;10210;52.284;9.892;2023-04-01T00:01:01;98464.00;;;14.70
20103;BMP180;10210;52.284;9.892;2023-04-01T00:03:29;98468.00;;;14.70
20103;BMP180;10210;52.284;9.892;2023-04-01T00:05:57;98469.00;;;14.60
20103;BMP180;10210;52.284;9.892;2023-04-01T00:08:25;98471.00;;;14.60
20103;BMP180;10210;52.284;9.892;2023-04-01T00:10:52;98461.00;;;14.60
20103;BMP180;10210;52.284;9.892;2023-04-01T00:13:19;98465.00;;;14.60
20103;BMP180;10210;52.284;9.892;2023-04-01T00:15:45;98468.00;;;14.60
20103;BMP180;10210;52.284;9.892;2023-04-01T00:18:12;98466.00;;;14.60
20103;BMP180;10210;52.284;9.892;2023-04-01T00:20:38;98468.00;;;14.50
20103;BMP180;10210;52.284;9.892;2023-04-01T00:23:03;98470.00;;;14.50
20103;BMP180;10210;52.284;9.892;2023-04-01T00:25:30;98479.00;;;14.50
20103;BMP180;10210;52.284;9.892;2023-04-01T00:27:56;98461.00;;;14.50
20103;BMP180;10210;52.284;9.892;2023-04-01T00:30:22;98465.00;;;14.50
20103;BMP180;10210;52.284;9.892;2023-04-01T00:32:52;98470.00;;;14.50
20103;BMP180;10210;52.284;9.892;2023-04-01T00:35:18;98465.00;;;14.50
20103;BMP180;10210;52.284;9.892;2023-04-01T00:37:44;98458.00;;;14.50
20103;BMP180;10210;52.284;9.892;2023-04-01T00:40:29;98457.00;;;14.50
20103;BMP180;10210;52.284;9.892;2023-04-01T00:42:55;98472.00;;;14.50
20103;BMP180;10210;52.284;9.892;2023-04-01T00:47:56;98463.00;;;14.50
20103;BMP180;10210;52.284;9.892;2023-04-01T00:50:24;98457.00;;;14.50
20103;BMP180;10210;52.284;9.892;2023-04-01T00:52:52;98463.00;;;14.50
20103;BMP180;10210;52.284;9.892;2023-04-01T00:55:19;98469.00;;;14.50
20103;BMP180;10210;52.284;9.892;2023-04-01T00:57:49;98467.00;;;14.50
20103;BMP180;10210;52.284;9.892;2023-04-01T01:00:17;98471.00;;;14.50
20103;BMP180;10210;52.284;9.892;2023-04-01T01:02:45;98467.00;;;14.40
20103;BMP180;10210;52.284;9.892;2023-04-01T01:05:16;98470.00;;;14.40
20103;BMP180;10210;52.284;9.892;2023-04-01T01:08:18;98474.00;;;14.40
20103;BMP180;10210;52.284;9.892;2023-04-01T01:10:50;98467.00;;;14.40
20103;BMP180;10210;52.284;9.892;2023-04-01T01:13:29;98467.00;;;14.40
20103;BMP180;10210;52.284;9.892;2023-04-01T01:16:27;98466.00;;;14.40
20103;BMP180;10210;52.284;9.892;2023-04-01T01:19:12;98461.00;;;14.40
20103;BMP180;10210;52.284;9.892;2023-04-01T01:34:26;98457.00;;;14.20
20103;BMP180;10210;52.284;9.892;2023-04-01T01:37:03;98460.00;;;14.30
20103;BMP180;10210;52.284;9.892;2023-04-01T01:39:33;98471.00;;;14.30
20103;BMP180;10210;52.284;9.892;2023-04-01T01:42:06;98464.00;;;14.30
20103;BMP180;10210;52.284;9.892;2023-04-01T01:44:34;98460.00;;;14.40
20103;BMP180;10210;52.284;9.892;2023-04-01T01:47:01;98463.00;;;14.30
20103;BMP180;10210;52.284;9.892;2023-04-01T01:49:31;98465.00;;;14.30
20103;BMP180;10210;52.284;9.892;2023-04-01T01:51:58;98463.00;;;14.40
20103;BMP180;10210;52.284;9.892;2023-04-01T01:54:23;98461.00;;;14.40
20103;BMP180;10210;52.284;9.892;2023-04-01T01:57:05;98463.00;;;14.40
20103;BMP180;10210;52.284;9.892;2023-04-01T01:59:35;98466.00;;;14.40
20103;BMP180;10210;52.284;9.892;2023-04-01T02:02:05;98456.00;;;14.40
20103;BMP180;10210;52.284;9.892;2023-04-01T02:04:39;98464.00;;;14.40
20103;BMP180;10210;52.284;9.892;2023-04-01T02:07:13;98466.00;;;14.40
20103;BMP180;10210;52.284;9.892;2023-04-01T02:09:41;98466.00;;;14.40
20103;BMP180;10210;52.284;9.892;2023-04-01T02:12:10;98470.00;;;14.40
20103;BMP180;10210;52.284;9.892;2023-04-01T02:15:20;98464.00;;;14.30
20103;BMP180;10210;52.284;9.892;2023-04-01T02:17:44;98467.00;;;14.30
20103;BMP180;10210;52.284;9.892;2023-04-01T02:20:17;98469.00;;;14.30
20103;BMP180;10210;52.284;9.892;2023-04-01T02:22:50;98460.00;;;14.30
20103;BMP180;10210;52.284;9.892;2023-04-01T02:25:23;98464.00;;;14.30
20103;BMP180;10210;52.284;9.892;2023-04-01T02:27:51;98474.00;;;14.30
20103;BMP180;10210;52.284;9.892;2023-04-01T02:30:18;98474.00;;;14.20
20103;BMP180;10210;52.284;9.892;2023-04-01T02:32:45;98475.00;;;14.20
20103;BMP180;10210;52.284;9.892;2023-04-01T02:35:14;98467.00;;;14.20
20103;BMP180;10210;52.284;9.892;2023-04-01T02:37:45;98472.00;;;14.20
20103;BMP180;10210;52.284;9.892;2023-04-01T02:40:15;98464.00;;;14.20
20103;BMP180;10210;52.284;9.892;2023-04-01T02:42:41;98469.00;;;14.30
20103;BMP180;10210;52.284;9.892;2023-04-01T02:45:08;98468.00;;;14.20
20103;BMP180;10210;52.284;9.892;2023-04-01T02:47:34;98463.00;;;14.20
20103;BMP180;10210;52.284;9.892;2023-04-01T02:50:00;98474.00;;;14.20
20103;BMP180;10210;52.284;9.892;2023-04-01T02:52:29;98470.00;;;14.10
20103;BMP180;10210;52.284;9.892;2023-04-01T02:54:56;98478.00;;;14.10
20103;BMP180;10210;52.284;9.892;2023-04-01T02:57:22;98478.00;;;14.00
20103;BMP180;10210;52.284;9.892;2023-04-01T02:59:48;98481.00;;;14.00
20103;BMP180;10210;52.284;9.892;2023-04-01T03:02:14;98481.00;;;14.00
20103;BMP180;10210;52.284;9.892;2023-04-01T03:04:40;98476.00;;;13.90
20103;BMP180;10210;52.284;9.892;2023-04-01T03:07:06;98481.00;;;13.90
20103;BMP180;10210;52.284;9.892;2023-04-01T03:09:32;98475.00;;;13.90
20103;BMP180;10210;52.284;9.892;2023-04-01T03:11:58;98474.00;;;13.90
20103;BMP180;10210;52.284;9.892;2023-04-01T03:14:23;98477.00;;;13.80
20103;BMP180;10210;52.284;9.892;2023-04-01T03:16:49;98476.00;;;13.80
20103;BMP180;10210;52.284;9.892;2023-04-01T03:19:14;98472.00;;;13.80
20103;BMP180;10210;52.284;9.892;2023-04-01T03:21:40;98485.00;;;13.80
20103;BMP180;10210;52.284;9.892;2023-04-01T03:24:07;98486.00;;;13.80
20103;BMP180;10210;52.284;9.892;2023-04-01T03:26:33;98477.00;;;13.90
20103;BMP180;10210;52.284;9.892;2023-04-01T03:28:58;98489.00;;;13.90
20103;BMP180;10210;52.284;9.892;2023-04-01T03:31:25;98482.00;;;13.90
20103;BMP180;10210;52.284;9.892;2023-04-01T03:33:51;98483.00;;;13.90
20103;BMP180;10210;52.284;9.892;2023-04-01T03:36:17;98479.00;;;13.90
20103;BMP180;10210;52.284;9.892;2023-04-01T03:38:44;98477.00;;;13.90
20103;BMP180;10210;52.284;9.892;2023-04-01T03:41:17;98484.00;;;13.90
20103;BMP180;10210;52.284;9.892;2023-04-01T03:43:44;98479.00;;;14.00
20103;BMP180;10210;52.284;9.892;2023-04-01T03:46:10;98481.00;;;14.00
20103;BMP180;10210;52.284;9.892;2023-04-01T03:48:36;98493.00;;;14.00
20103;BMP180;10210;52.284;9.892;2023-04-01T03:51:06;98485.00;;;13.90
20103;BMP180;10210;52.284;9.892;2023-04-01T03:53:32;98481.00;;;13.90
20103;BMP180;10210;52.284;9.892;2023-04-01T03:55:57;98487.00;;;13.90
20103;BMP180;10210;52.284;9.892;2023-04-01T03:58:23;98496.00;;;13.90
20103;BMP180;10210;52.284;9.892;2023-04-01T04:00:49;98490.00;;;13.90
20103;BMP180;10210;52.284;9.892;2023-04-01T04:03:14;98489.00;;;13.80
20103;BMP180;10210;52.284;9.892;2023-04-01T04:05:49;98498.00;;;13.80
20103;BMP180;10210;52.284;9.892;2023-04-01T04:08:15;98503.00;;;13.80
20103;BMP180;10210;52.284;9.892;2023-04-01T04:10:42;98498.00;;;13.80
20103;BMP180;10210;52.284;9.892;2023-04-01T04:13:08;98490.00;;;13.80
20103;BMP180;10210;52.284;9.892;2023-04-01T04:15:34;98492.00;;;13.80
20103;BMP180;10210;52.284;9.892;2023-04-01T04:17:59;98496.00;;;13.80
20103;BMP180;10210;52.284;9.892;2023-04-01T04:20:25;98495.00;;;13.80
20103;BMP180;10210;52.284;9.892;2023-04-01T04:22:51;98496.00;;;13.80
20103;BMP180;10210;52.284;9.892;2023-04-01T04:25:17;98496.00;;;13.80
20103;BMP180;10210;52.284;9.892;2023-04-01T04:27:43;98495.00;;;13.80
20103;BMP180;10210;52.284;9.892;2023-04-01T04:30:09;98502.00;;;13.80
20103;BMP180;10210;52.284;9.892;2023-04-01T04:32:35;98499.00;;;13.80
20103;BMP180;10210;52.284;9.892;2023-04-01T04:35:04;98501.00;;;13.90
20103;BMP180;10210;52.284;9.892;2023-04-01T04:37:31;98509.00;;;13.90
20103;BMP180;10210;52.284;9.892;2023-04-01T04:39:57;98504.00;;;13.90
20103;BMP180;10210;52.284;9.892;2023-04-01T04:42:23;98513.00;;;13.90
20103;BMP180;10210;52.284;9.892;2023-04-01T04:44:48;98511.00;;;13.90
20103;BMP180;10210;52.284;9.892;2023-04-01T04:47:14;98510.00;;;13.90
20103;BMP180;10210;52.284;9.892;2023-04-01T04:49:40;98513.00;;;13.90
20103;BMP180;10210;52.284;9.892;2023-04-01T04:52:05;98520.00;;;13.90
20103;BMP180;10210;52.284;9.892;2023-04-01T04:54:31;98515.00;;;14.00
20103;BMP180;10210;52.284;9.892;2023-04-01T04:56:57;98515.00;;;14.00
20103;BMP180;10210;52.284;9.892;2023-04-01T04:59:22;98512.00;;;14.00
20103;BMP180;10210;52.284;9.892;2023-04-01T05:01:48;98526.00;;;13.90
20103;BMP180;10210;52.284;9.892;2023-04-01T05:04:14;98526.00;;;13.90
20103;BMP180;10210;52.284;9.892;2023-04-01T05:06:39;98536.00;;;13.90
20103;BMP180;10210;52.284;9.892;2023-04-01T05:09:05;98534.00;;;13.90
20103;BMP180;10210;52.284;9.892;2023-04-01T05:11:31;98534.00;;;13.90
20103;BMP180;10210;52.284;9.892;2023-04-01T05:13:57;98536.00;;;13.90
20103;BMP180;10210;52.284;9.892;2023-04-01T05:16:22;98525.00;;;13.90
20103;BMP180;10210;52.284;9.892;2023-04-01T05:18:48;98536.00;;;13.90
20103;BMP180;10210;52.284;9.892;2023-04-01T05:21:15;98528.00;;;13.90
20103;BMP180;10210;52.284;9.892;2023-04-01T05:23:41;98535.00;;;13.90
20103;BMP180;10210;52.284;9.892;2023-04-01T05:26:10;98536.00;;;13.90
20103;BMP180;10210;52.284;9.892;2023-04-01T05:28:36;98537.00;;;13.90
20103;BMP180;10210;52.284;9.892;2023-04-01T05:31:04;98526.00;;;13.90
20103;BMP180;10210;52.284;9.892;2023-04-01T05:33:30;98527.00;;;13.90
20103;BMP180;10210;52.284;9.892;2023-04-01T05:36:08;98530.00;;;13.90
20103;BMP180;10210;52.284;9.892;2023-04-01T05:38:34;98529.00;;;13.90
20103;BMP180;10210;52.284;9.892;2023-04-01T05:41:02;98535.00;;;13.90
20103;BMP180;10210;52.284;9.892;2023-04-01T05:43:29;98529.00;;;13.90
20103;BMP180;10210;52.284;9.892;2023-04-01T05:45:56;98543.00;;;13.90
20103;BMP180;10210;52.284;9.892;2023-04-01T05:48:21;98536.00;;;13.90
20103;BMP180;10210;52.284;9.892;2023-04-01T05:50:47;98523.00;;;13.90
20103;BMP180;10210;52.284;9.892;2023-04-01T05:53:13;98542.00;;;13.90
20103;BMP180;10210;52.284;9.892;2023-04-01T05:55:39;98540.00;;;13.90
20103;BMP180;10210;52.284;9.892;2023-04-01T05:58:05;98542.00;;;13.90
20103;BMP180;10210;52.284;9.892;2023-04-01T06:00:30;98542.00;;;13.90
20103;BMP180;10210;52.284;9.892;2023-04-01T06:03:01;98550.00;;;13.90
20103;BMP180;10210;52.284;9.892;2023-04-01T06:05:30;98548.00;;;13.90
20103;BMP180;10210;52.284;9.892;2023-04-01T06:08:08;98543.00;;;13.90
20103;BMP180;10210;52.284;9.892;2023-04-01T06:10:58;98546.00;;;13.90
20103;BMP180;10210;52.284;9.892;2023-04-01T06:19:57;98562.00;;;13.90
20103;BMP180;10210;52.284;9.892;2023-04-01T06:37:42;98574.00;;;14.00
20103;BMP180;10210;52.284;9.892;2023-04-01T06:40:39;98575.00;;;14.10
20103;BMP180;10210;52.284;9.892;2023-04-01T06:49:41;98576.00;;;14.10
20103;BMP180;10210;52.284;9.892;2023-04-01T06:52:49;98581.00;;;14.10
20103;BMP180;10210;52.284;9.892;2023-04-01T06:55:31;98580.00;;;14.20
20103;BMP180;10210;52.284;9.892;2023-04-01T06:58:00;98589.00;;;14.20
20103;BMP180;10210;52.284;9.892;2023-04-01T07:00:39;98581.00;;;14.20
20103;BMP180;10210;52.284;9.892;2023-04-01T07:03:29;98589.00;;;14.20
20103;BMP180;10210;52.284;9.892;2023-04-01T07:06:03;98591.00;;;14.20
20103;BMP180;10210;52.284;9.892;2023-04-01T07:08:34;98597.00;;;14.20
20103;BMP180;10210;52.284;9.892;2023-04-01T07:11:05;98588.00;;;14.30
20103;BMP180;10210;52.284;9.892;2023-04-01T07:14:00;98592.00;;;14.30
20103;BMP180;10210;52.284;9.892;2023-04-01T07:16:34;98590.00;;;14.40
20103;BMP180;10210;52.284;9.892;2023-04-01T07:19:31;98600.00;;;14.40
20103;BMP180;10210;52.284;9.892;2023-04-01T07:22:13;98606.00;;;14.40
20103;BMP180;10210;52.284;9.892;2023-04-01T07:24:44;98609.00;;;14.50
20103;BMP180;10210;52.284;9.892;2023-04-01T07:27:13;98612.00;;;14.50
20103;BMP180;10210;52.284;9.892;2023-04-01T07:29:39;98613.00;;;14.60
20103;BMP180;10210;52.284;9.892;2023-04-01T07:44:54;98626.00;;;14.70
20103;BMP180;10210;52.284;9.892;2023-04-01T07:47:45;98626.00;;;14.70
20103;BMP180;10210;52.284;9.892;2023-04-01T07:50:30;98635.00;;;14.80
20103;BMP180;10210;52.284;9.892;2023-04-01T07:55:49;98645.00;;;15.00
20103;BMP180;10210;52.284;9.892;2023-04-01T08:07:20;98649.00;;;14.80
20103;BMP180;10210;52.284;9.892;2023-04-01T08:15:24;98653.00;;;14.90
20103;BMP180;10210;52.284;9.892;2023-04-01T08:20:50;98656.00;;;14.90
20103;BMP180;10210;52.284;9.892;2023-04-01T08:23:22;98658.00;;;15.00
20103;BMP180;10210;52.284;9.892;2023-04-01T08:26:05;98663.00;;;15.10
20103;BMP180;10210;52.284;9.892;2023-04-01T08:29:00;98665.00;;;15.20
20103;BMP180;10210;52.284;9.892;2023-04-01T08:31:44;98670.00;;;15.50
20103;BMP180;10210;52.284;9.892;2023-04-01T08:34:26;98666.00;;;15.60
20103;BMP180;10210;52.284;9.892;2023-04-01T08:37:20;98670.00;;;15.80
20103;BMP180;10210;52.284;9.892;2023-04-01T08:39:58;98677.00;;;15.90
20103;BMP180;10210;52.284;9.892;2023-04-01T08:57:56;98684.00;;;15.80
20103;BMP180;10210;52.284;9.892;2023-04-01T09:00:24;98689.00;;;15.80
20103;BMP180;10210;52.284;9.892;2023-04-01T09:06:24;98680.00;;;15.80
20103;BMP180;10210;52.284;9.892;2023-04-01T09:09:40;98681.00;;;15.80
20103;BMP180;10210;52.284;9.892;2023-04-01T09:26:39;98691.00;;;16.10
20103;BMP180;10210;52.284;9.892;2023-04-01T09:40:37;98712.00;;;16.10
20103;BMP180;10210;52.284;9.892;2023-04-01T09:43:51;98719.00;;;16.10
20103;BMP180;10210;52.284;9.892;2023-04-01T09:52:38;98722.00;;;16.10
20103;BMP180;10210;52.284;9.892;2023-04-01T09:58:32;98721.00;;;16.10
20103;BMP180;10210;52.284;9.892;2023-04-01T10:01:42;98731.00;;;16.00
20103;BMP180;10210;52.284;9.892;2023-04-01T10:05:11;98725.00;;;16.00
20103;BMP180;10210;52.284;9.892;2023-04-01T10:08:31;98726.00;;;15.90
20103;BMP180;10210;52.284;9.892;2023-04-01T10:14:27;98736.00;;;15.90
20103;BMP180;10210;52.284;9.892;2023-04-01T10:23:11;98742.00;;;15.80
20103;BMP180;10210;52.284;9.892;2023-04-01T10:26:14;98747.00;;;15.70
20103;BMP180;10210;52.284;9.892;2023-04-01T10:32:58;98751.00;;;15.60
20103;BMP180;10210;52.284;9.892;2023-04-01T10:36:10;98758.00;;;15.60
20103;BMP180;10210;52.284;9.892;2023-04-01T10:38:59;98750.00;;;15.70
20103;BMP180;10210;52.284;9.892;2023-04-01T10:51:38;98761.00;;;15.70
20103;BMP180;10210;52.284;9.892;2023-04-01T10:54:27;98765.00;;;15.80
20103;BMP180;10210;52.284;9.892;2023-04-01T11:27:01;98792.00;;;16.50
20103;BMP180;10210;52.284;9.892;2023-04-01T11:30:02;98798.00;;;16.50
20103;BMP180;10210;52.284;9.892;2023-04-01T11:36:25;98805.00;;;16.50
20103;BMP180;10210;52.284;9.892;2023-04-01T11:42:17;98794.00;;;16.50
20103;BMP180;10210;52.284;9.892;2023-04-01T11:47:58;98800.00;;;16.40
20103;BMP180;10210;52.284;9.892;2023-04-01T12:06:59;98825.00;;;16.50
20103;BMP180;10210;52.284;9.892;2023-04-01T12:15:56;98831.00;;;16.50
20103;BMP180;10210;52.284;9.892;2023-04-01T12:18:57;98837.00;;;16.60
20103;BMP180;10210;52.284;9.892;2023-04-01T12:21:45;98839.00;;;16.60
20103;BMP180;10210;52.284;9.892;2023-04-01T12:31:25;98846.00;;;16.60
20103;BMP180;10210;52.284;9.892;2023-04-01T12:37:21;98845.00;;;16.60
20103;BMP180;10210;52.284;9.892;2023-04-01T12:40:01;98853.00;;;16.60
20103;BMP180;10210;52.284;9.892;2023-04-01T12:48:24;98855.00;;;16.30
20103;BMP180;10210;52.284;9.892;2023-04-01T12:51:26;98866.00;;;16.20
20103;BMP180;10210;52.284;9.892;2023-04-01T12:57:26;98870.00;;;16.00
20103;BMP180;10210;52.284;9.892;2023-04-01T13:00:44;98868.00;;;15.90
20103;BMP180;10210;52.284;9.892;2023-04-01T13:03:42;98877.00;;;15.90
20103;BMP180;10210;52.284;9.892;2023-04-01T13:09:52;98886.00;;;15.90
20103;BMP180;10210;52.284;9.892;2023-04-01T13:15:25;98888.00;;;15.90
20103;BMP180;10210;52.284;9.892;2023-04-01T13:18:26;98891.00;;;15.80
20103;BMP180;10210;52.284;9.892;2023-04-01T13:21:34;98895.00;;;15.80
20103;BMP180;10210;52.284;9.892;2023-04-01T13:27:12;98898.00;;;15.80
20103;BMP180;10210;52.284;9.892;2023-04-01T13:44:55;98909.00;;;15.90
20103;BMP180;10210;52.284;9.892;2023-04-01T13:51:15;98915.00;;;15.90
20103;BMP180;10210;52.284;9.892;2023-04-01T13:54:24;98916.00;;;15.90
20103;BMP180;10210;52.284;9.892;2023-04-01T13:57:41;98920.00;;;16.00
20103;BMP180;10210;52.284;9.892;2023-04-01T14:03:37;98937.00;;;16.00
20103;BMP180;10210;52.284;9.892;2023-04-01T14:06:45;98937.00;;;16.00
20103;BMP180;10210;52.284;9.892;2023-04-01T14:21:21;98949.00;;;16.20
20103;BMP180;10210;52.284;9.892;2023-04-01T14:29:56;98966.00;;;16.00
20103;BMP180;10210;52.284;9.892;2023-04-01T14:32:43;98966.00;;;15.90
20103;BMP180;10210;52.284;9.892;2023-04-01T14:35:56;98978.00;;;15.70
20103;BMP180;10210;52.284;9.892;2023-04-01T14:45:39;98993.00;;;15.40
20103;BMP180;10210;52.284;9.892;2023-04-01T14:48:28;98996.00;;;15.40
20103;BMP180;10210;52.284;9.892;2023-04-01T14:51:08;99007.00;;;15.30
20103;BMP180;10210;52.284;9.892;2023-04-01T14:53:43;99001.00;;;15.30
20103;BMP180;10210;52.284;9.892;2023-04-01T14:56:11;99008.00;;;15.30
20103;BMP180;10210;52.284;9.892;2023-04-01T14:58:57;99027.00;;;15.20
20103;BMP180;10210;52.284;9.892;2023-04-01T15:01:57;99020.00;;;15.10
20103;BMP180;10210;52.284;9.892;2023-04-01T15:04:50;99034.00;;;15.10
20103;BMP180;10210;52.284;9.892;2023-04-01T15:10:13;99039.00;;;15.00
20103;BMP180;10210;52.284;9.892;2023-04-01T15:15:35;99050.00;;;14.90
20103;BMP180;10210;52.284;9.892;2023-04-01T15:18:21;99052.00;;;14.90
20103;BMP180;10210;52.284;9.892;2023-04-01T15:24:17;99072.00;;;14.80
20103;BMP180;10210;52.284;9.892;2023-04-01T15:32:27;99081.00;;;14.70
20103;BMP180;10210;52.284;9.892;2023-04-01T15:38:26;99089.00;;;14.50
20103;BMP180;10210;52.284;9.892;2023-04-01T15:41:16;99105.00;;;14.50
20103;BMP180;10210;52.284;9.892;2023-04-01T15:46:46;99110.00;;;14.40
20103;BMP180;10210;52.284;9.892;2023-04-01T15:49:38;99118.00;;;14.40
20103;BMP180;10210;52.284;9.892;2023-04-01T15:55:27;99123.00;;;14.30
20103;BMP180;10210;52.284;9.892;2023-04-01T15:58:41;99123.00;;;14.20
20103;BMP180;10210;52.284;9.892;2023-04-01T16:10:05;99151.00;;;14.00
20103;BMP180;10210;52.284;9.892;2023-04-01T16:20:01;99169.00;;;14.00
20103;BMP180;10210;52.284;9.892;2023-04-01T16:22:32;99168.00;;;13.90
20103;BMP180;10210;52.284;9.892;2023-04-01T16:25:39;99182.00;;;13.90
20103;BMP180;10210;52.284;9.892;2023-04-01T16:28:47;99181.00;;;13.80
20103;BMP180;10210;52.284;9.892;2023-04-01T16:32:17;99192.00;;;13.80
20103;BMP180;10210;52.284;9.892;2023-04-01T16:34:58;99186.00;;;13.80
20103;BMP180;10210;52.284;9.892;2023-04-01T16:37:39;99212.00;;;13.80
20103;BMP180;10210;52.284;9.892;2023-04-01T16:40:40;99197.00;;;13.80
20103;BMP180;10210;52.284;9.892;2023-04-01T16:43:21;99216.00;;;13.80
20103;BMP180;10210;52.284;9.892;2023-04-01T16:46:34;99207.00;;;13.70
20103;BMP180;10210;52.284;9.892;2023-04-01T16:55:14;99225.00;;;13.60
20103;BMP180;10210;52.284;9.892;2023-04-01T16:57:56;99240.00;;;13.60
20103;BMP180;10210;52.284;9.892;2023-04-01T17:00:37;99242.00;;;13.50
20103;BMP180;10210;52.284;9.892;2023-04-01T17:05:43;99260.00;;;13.50
20103;BMP180;10210;52.284;9.892;2023-04-01T17:11:19;99267.00;;;13.40
20103;BMP180;10210;52.284;9.892;2023-04-01T17:20:14;99293.00;;;13.30
20103;BMP180;10210;52.284;9.892;2023-04-01T17:22:52;99298.00;;;13.20
20103;BMP180;10210;52.284;9.892;2023-04-01T17:26:00;99300.00;;;13.10
20103;BMP180;10210;52.284;9.892;2023-04-01T17:28:46;99313.00;;;13.10
20103;BMP180;10210;52.284;9.892;2023-04-01T17:34:18;99323.00;;;12.90
20103;BMP180;10210;52.284;9.892;2023-04-01T17:37:26;99334.00;;;12.90
20103;BMP180;10210;52.284;9.892;2023-04-01T17:43:20;99342.00;;;12.80
20103;BMP180;10210;52.284;9.892;2023-04-01T17:45:55;99353.00;;;12.90
20103;BMP180;10210;52.284;9.892;2023-04-01T17:48:45;99357.00;;;12.90
20103;BMP180;10210;52.284;9.892;2023-04-01T17:52:00;99368.00;;;12.80
20103;BMP180;10210;52.284;9.892;2023-04-01T17:55:15;99365.00;;;12.80
20103;BMP180;10210;52.284;9.892;2023-04-01T18:09:46;99402.00;;;12.60
20103;BMP180;10210;52.284;9.892;2023-04-01T18:15:48;99421.00;;;12.50
20103;BMP180;10210;52.284;9.892;2023-04-01T18:18:58;99421.00;;;12.50
20103;BMP180;10210;52.284;9.892;2023-04-01T18:24:41;99433.00;;;12.50
20103;BMP180;10210;52.284;9.892;2023-04-01T18:29:51;99444.00;;;12.40
20103;BMP180;10210;52.284;9.892;2023-04-01T18:33:31;99459.00;;;12.30
20103;BMP180;10210;52.284;9.892;2023-04-01T18:36:23;99473.00;;;12.20
20103;BMP180;10210;52.284;9.892;2023-04-01T18:39:02;99476.00;;;12.30
20103;BMP180;10210;52.284;9.892;2023-04-01T18:41:40;99480.00;;;12.30
20103;BMP180;10210;52.284;9.892;2023-04-01T18:44:43;99488.00;;;12.20
20103;BMP180;10210;52.284;9.892;2023-04-01T18:47:48;99495.00;;;12.20
20103;BMP180;10210;52.284;9.892;2023-04-01T18:50:51;99506.00;;;12.20
20103;BMP180;10210;52.284;9.892;2023-04-01T18:53:41;99508.00;;;12.20
20103;BMP180;10210;52.284;9.892;2023-04-01T18:56:24;99517.00;;;12.20
20103;BMP180;10210;52.284;9.892;2023-04-01T18:59:15;99524.00;;;12.20
20103;BMP180;10210;52.284;9.892;2023-04-01T19:02:00;99522.00;;;12.20
20103;BMP180;10210;52.284;9.892;2023-04-01T19:04:42;99526.00;;;12.20
20103;BMP180;10210;52.284;9.892;2023-04-01T19:12:55;99547.00;;;12.20
20103;BMP180;10210;52.284;9.892;2023-04-01T19:15:49;99557.00;;;12.10
20103;BMP180;10210;52.284;9.892;2023-04-01T19:18:39;99561.00;;;12.10
20103;BMP180;10210;52.284;9.892;2023-04-01T19:21:19;99564.00;;;12.10
20103;BMP180;10210;52.284;9.892;2023-04-01T19:29:48;99582.00;;;12.00
20103;BMP180;10210;52.284;9.892;2023-04-01T19:36:00;99600.00;;;11.80
20103;BMP180;10210;52.284;9.892;2023-04-01T19:38:41;99601.00;;;11.80
20103;BMP180;10210;52.284;9.892;2023-04-01T19:41:39;99606.00;;;11.70
20103;BMP180;10210;52.284;9.892;2023-04-01T19:47:56;99624.00;;;11.60
20103;BMP180;10210;52.284;9.892;2023-04-01T19:50:56;99641.00;;;11.60
20103;BMP180;10210;52.284;9.892;2023-04-01T19:56:16;99641.00;;;11.50
20103;BMP180;10210;52.284;9.892;2023-04-01T20:01:51;99656.00;;;11.50
20103;BMP180;10210;52.284;9.892;2023-04-01T20:04:33;99673.00;;;11.50
20103;BMP180;10210;52.284;9.892;2023-04-01T20:10:14;99676.00;;;11.50
20103;BMP180;10210;52.284;9.892;2023-04-01T20:15:37;99681.00;;;11.50
20103;BMP180;10210;52.284;9.892;2023-04-01T20:18:23;99694.00;;;11.40
20103;BMP180;10210;52.284;9.892;2023-04-01T20:21:03;99696.00;;;11.40
20103;BMP180;10210;52.284;9.892;2023-04-01T20:23:50;99710.00;;;11.40
20103;BMP180;10210;52.284;9.892;2023-04-01T20:26:27;99709.00;;;11.40
20103;BMP180;10210;52.284;9.892;2023-04-01T20:29:08;99720.00;;;11.40
20103;BMP180;10210;52.284;9.892;2023-04-01T20:31:41;99722.00;;;11.40
20103;BMP180;10210;52.284;9.892;2023-04-01T20:34:30;99727.00;;;11.40
20103;BMP180;10210;52.284;9.892;2023-04-01T20:43:35;99749.00;;;11.20
20103;BMP180;10210;52.284;9.892;2023-04-01T20:46:45;99767.00;;;11.10
20103;BMP180;10210;52.284;9.892;2023-04-01T20:49:40;99759.00;;;11.10
20103;BMP180;10210;52.284;9.892;2023-04-01T20:57:38;99782.00;;;11.00
20103;BMP180;10210;52.284;9.892;2023-04-01T21:00:49;99790.00;;;11.00
20103;BMP180;10210;52.284;9.892;2023-04-01T21:15:27;99818.00;;;10.90
20103;BMP180;10210;52.284;9.892;2023-04-01T21:18:38;99835.00;;;10.80
20103;BMP180;10210;52.284;9.892;2023-04-01T21:27:25;99849.00;;;10.70
20103;BMP180;10210;52.284;9.892;2023-04-01T21:31:00;99845.00;;;10.70
20103;BMP180;10210;52.284;9.892;2023-04-01T21:36:48;99866.00;;;10.70
20103;BMP180;10210;52.284;9.892;2023-04-01T21:39:42;99869.00;;;10.60
20103;BMP180;10210;52.284;9.892;2023-04-01T21:49:14;99895.00;;;10.50
20103;BMP180;10210;52.284;9.892;2023-04-01T21:52:28;99898.00;;;10.50
20103;BMP180;10210;52.284;9.892;2023-04-01T22:07:15;99917.00;;;10.40
20103;BMP180;10210;52.284;9.892;2023-04-01T22:10:10;99922.00;;;10.40
20103;BMP180;10210;52.284;9.892;2023-04-01T22:15:54;99925.00;;;10.40
20103;BMP180;10210;52.284;9.892;2023-04-01T22:18:55;99929.00;;;10.40
20103;BMP180;10210;52.284;9.892;2023-04-01T22:21:44;99939.00;;;10.40
20103;BMP180;10210;52.284;9.892;2023-04-01T22:27:07;99962.00;;;10.40
20103;BMP180;10210;52.284;9.892;2023-04-01T22:30:05;99955.00;;;10.40
20103;BMP180;10210;52.284;9.892;2023-04-01T22:32:45;99960.00;;;10.40
20103;BMP180;10210;52.284;9.892;2023-04-01T22:35:22;99967.00;;;10.40
20103;BMP180;10210;52.284;9.892;2023-04-01T22:38:22;99978.00;;;10.30
20103;BMP180;10210;52.284;9.892;2023-04-01T22:41:37;99969.00;;;10.30
20103;BMP180;10210;52.284;9.892;2023-04-01T22:47:23;99993.00;;;10.30
20103;BMP180;10210;52.284;9.892;2023-04-01T22:50:00;99991.00;;;10.20
20103;BMP180;10210;52.284;9.892;2023-04-01T22:52:40;99999.00;;;10.20
20103;BMP180;10210;52.284;9.892;2023-04-01T22:55:23;100011.00;;;10.20
20103;BMP180;10210;52.284;9.892;2023-04-01T22:58:13;100004.00;;;10.20
20103;BMP180;10210;52.284;9.892;2023-04-01T23:00:45;100013.00;;;10.20
20103;BMP180;10210;52.284;9.892;2023-04-01T23:03:30;100019.00;;;10.10
20103;BMP180;10210;52.284;9.892;2023-04-01T23:06:02;100016.00;;;10.10